• Join FlightAware (Why Join?)
  • Login
  • US Flag 
Gobble Gobble! 
03:59PM EST


 

Airport Tracker/Info


-or-


 

Live Flight TrackerFlight Track Log ✈ EJA951 ✈ 16-Mar-2014 ✈ KEGE - KRIC

Flight Track Log - Related Links

Times and Time Zones

All times are in EDT time to prevent confusion due to time zone crossing. See the EJA951 flight status page for this flight to view local times or setup timezone preferences in your user account.

Time Position Orientation Groundspeed Altitude Reporting Facility
EDT Latitude Longitude Course Direction KTS MPH feet Rate Location/Type
10:28AM 39.6194 -106.9750 99° East 215 247 9,600  Level Denver Center
10:29AM 39.6106 -107.0436 260° West 236 272 12,600 3,060 Climbing Denver Center
10:30AM 39.6747 -107.0419 North 240 276 15,900 2,580 Climbing Denver Center
10:31AM 39.7408 -107.0706 342° North 245 282 18,000 1,500 Climbing Denver Center
10:32AM 39.8995 -105.8807 105° East  Level FlightAware Approximate
10:32AM 39.7983 -107.0006 43° Northeast 317 365 19,100  Level Denver Center
10:33AM 39.8710 -105.7010 99° East  Level FlightAware Approximate
10:33AM 39.8186 -106.8714 78° East 391 450 20,200  Level Denver Center
10:34AM 39.8114 -106.7222 94° East 406 467 22,100 2,040 Climbing Denver Center
10:35AM 39.8036 -106.5692 94° East 415 478 24,500 1,920 Climbing Denver Center
10:36AM 39.7967 -106.4194 93° East 419 482 26,100 1,620 Climbing Denver Center
10:37AM 39.7886 -106.2597 94° East 438 504 27,900 1,920 Climbing Denver Center
10:38AM 39.7764 -106.0622 95° East 455 524 30,100 2,100 Climbing Denver Center
10:39AM 39.7683 -105.8972 94° East 460 529 32,300 1,980 Climbing Denver Center
10:40AM 39.7589 -105.7333 94° East 458 527 34,300 1,620 Climbing Denver Center
10:41AM 39.7597 -105.5667 90° East 461 531 35,700 1,320 Climbing Denver Center
10:42AM 39.7603 -105.3953 90° East 470 541 37,100 1,260 Climbing Denver Center
10:43AM 39.7608 -105.2200 90° East 482 555 38,400 600 Climbing Denver Center
10:45AM 39.7597 -104.8225 90° East 507 583 39,100 480 Climbing Denver Center
10:46AM 39.7589 -104.6317 90° East 512 589 40,000 900 Climbing Denver Center
10:47AM 39.7586 -104.4439 90° East 513 590 41,000 480 Climbing Denver Center
10:48AM 39.7572 -104.2592 91° East 510 587 41,000  Level Denver Center
10:49AM 39.7619 -104.0733 88° East 512 589 41,000  Level Denver Center
10:50AM 39.7683 -103.8844 87° East 520 598 41,000  Level Denver Center
10:51AM 39.7742 -103.6972 88° East 520 598 41,000  Level Denver Center
10:52AM 39.7792 -103.5097 88° East 520 598 41,000  Level Denver Center
10:54AM 39.7853 -103.3211 88° East 520 598 41,000  Level Denver Center
10:55AM 39.7906 -103.0947 88° East 525 604 41,000  Level Denver Center
10:56AM 39.7956 -102.9042 88° East 525 604 41,000  Level Denver Center
10:57AM 39.8000 -102.7142 88° East 526 605 41,000  Level Denver Center
10:58AM 39.8050 -102.5050 88° East 526 605 41,000  Level Denver Center
10:59AM 39.8083 -102.3233 89° East 527 606 41,000  Level Denver Center
11:00AM 39.8117 -102.1083 89° East 530 610 41,000  Level Denver Center
11:01AM 39.8144 -101.9239 89° East 532 612 41,000  Level Denver Center
11:02AM 39.8161 -101.7408 89° East 533 613 41,000  Level Denver Center
11:03AM 39.8197 -101.5264 89° East 532 612 41,000  Level Denver Center
11:04AM 39.8206 -101.3425 90° East 532 612 41,000  Level Denver Center
11:05AM 39.8228 -101.1261 89° East 535 616 41,000  Level Denver Center
11:06AM 39.8236 -100.9419 90° East 535 616 41,000  Level Denver Center
11:07AM 39.8253 -100.7314 89° East 528 608 41,000  Level Denver Center
11:08AM 39.8264 -100.5506 89° East 527 606 41,000  Level Denver Center
11:09AM 39.8275 -100.3378 90° East 527 606 41,000  Level Denver Center
11:10AM 39.8272 -100.1603 90° East 527 606 41,000  Level Denver Center
11:11AM 39.8269 -99.9692 90° East 528 608 41,000  Level Denver Center
11:12AM 39.8264 -99.7417 90° East 527 606 41,000  Level Denver Center
11:13AM 39.8250 -99.5519 90° East 527 606 41,000  Level Denver Center
11:14AM 39.8239 -99.3625 90° East 527 606 41,000  Level Denver Center
11:15AM 39.8228 -99.1731 90° East 526 605 41,000  Level Denver Center
11:16AM 39.8208 -98.9856 91° East 524 603 41,000  Level Denver Center
11:17AM 39.8172 -98.7586 91° East 524 603 41,000  Level Minneapolis Center
11:18AM 39.8156 -98.5708 91° East 524 603 41,000  Level Minneapolis Center
11:19AM 39.8114 -98.3822 92° East 524 603 41,000  Level Minneapolis Center
11:20AM 39.8086 -98.1925 91° East 524 603 41,000  Level Minneapolis Center
11:21AM 39.8053 -98.0053 91° East 524 603 41,000  Level Minneapolis Center
11:22AM 39.8011 -97.8169 92° East 524 603 41,000  Level Minneapolis Center
11:23AM 39.7972 -97.6278 91° East 524 603 41,000  Level Minneapolis Center
11:24AM 39.7925 -97.3989 91° East 525 604 41,000  Level Minneapolis Center
11:26AM 39.7867 -97.2050 92° East 528 608 41,000  Level Minneapolis Center
11:27AM 39.7836 -96.9900 91° East 532 612 41,000  Level Kansas City Center
11:28AM 39.7781 -96.7919 92° East 534 615 41,000  Level Kansas City Center
11:29AM 39.7731 -96.6064 92° East 534 615 41,000  Level Kansas City Center
11:30AM 39.7658 -96.3892 92° East 536 617 41,000  Level Kansas City Center
11:31AM 39.7597 -96.2028 92° East 537 618 41,000  Level Kansas City Center
11:32AM 39.7522 -96.0169 93° East 538 619 41,000  Level Kansas City Center
11:33AM 39.7444 -95.7989 93° East 538 619 41,000  Level Kansas City Center
11:34AM 39.7361 -95.6125 93° East 538 619 41,000  Level Kansas City Center
11:35AM 39.7275 -95.3928 93° East 539 620 41,000  Level Kansas City Center
11:36AM 39.7189 -95.2042 93° East 540 621 41,000  Level Kansas City Center
11:37AM 39.7106 -95.0164 93° East 540 621 41,000  Level Kansas City Center
11:38AM 39.7006 -94.7981 93° East 541 623 41,000  Level Kansas City Center
11:39AM 39.6925 -94.6083 93° East 541 623 41,000  Level Kansas City Center
11:40AM 39.6808 -94.3892 94° East 542 624 41,000  Level Kansas City Center
11:41AM 39.6719 -94.2011 93° East 544 626 41,000  Level Kansas City Center
11:42AM 39.6619 -94.0122 94° East 544 626 41,000  Level Kansas City Center
11:43AM 39.6492 -93.7919 94° East 545 627 41,000  Level Kansas City Center
11:44AM 39.6403 -93.6128 94° East 546 628 41,000  Level Kansas City Center
11:45AM 39.6269 -93.3781 94° East 548 631 41,000  Level Kansas City Center
11:46AM 39.6153 -93.1850 94° East 547 629 41,000  Level Kansas City Center
11:47AM 39.6031 -92.9894 95° East 547 629 41,000  Level Kansas City Center
11:48AM 39.5906 -92.7958 95° East 548 631 41,000  Level Kansas City Center
11:49AM 39.5781 -92.6003 95° East 547 629 41,000  Level Kansas City Center
11:50AM 39.5622 -92.3669 95° East 548 631 41,000  Level Kansas City Center
11:51AM 39.5486 -92.1683 95° East 548 631 41,000  Level Kansas City Center
11:52AM 39.5344 -91.9783 95° East 548 631 41,000  Level Kansas City Center
11:53AM 39.5211 -91.7822 95° East 549 632 41,000  Level Kansas City Center
11:54AM 39.5050 -91.5642 95° East 550 633 41,000  Level Kansas City Center
11:56AM 39.4889 -91.3653 96° East 551 634 41,000  Level Kansas City Center
11:57AM 39.4742 -91.1667 95° East 552 635 41,000  Level Kansas City Center
11:58AM 39.4581 -90.9667 96° East 553 636 41,000  Level Kansas City Center
11:59AM 39.4433 -90.7669 95° East 554 638 41,000  Level Kansas City Center
12:00PM 39.4261 -90.5672 96° East 554 638 41,000  Level Kansas City Center
12:01PM 39.4061 -90.3269 96° East 556 640 41,000  Level Kansas City Center
12:02PM 39.3894 -90.1256 96° East 556 640 41,000  Level Kansas City Center
12:03PM 39.3714 -89.9228 97° East 558 642 41,000  Level Kansas City Center
12:04PM 39.3531 -89.7194 97° East 563 648 41,000  Level Kansas City Center
12:05PM 39.3339 -89.5181 97° East 563 648 41,000  Level Kansas City Center
12:06PM 39.3156 -89.3158 97° East 564 649 41,000  Level Kansas City Center
12:07PM 39.2958 -89.1150 97° East 564 649 41,000  Level Kansas City Center
12:08PM 39.2767 -88.9131 97° East 564 649 41,000  Level Kansas City Center
12:09PM 39.2556 -88.6708 96° East 565 650 41,000  Level Kansas City Center
12:10PM 39.2381 -88.4972 97° East 565 650 41,000  Level Kansas City Center
12:11PM 39.2114 -88.2525 98° East 567 652 41,000  Level Kansas City Center
12:12PM 39.1914 -88.0489 97° East 567 652 41,000  Level Kansas City Center
12:13PM 39.1761 -87.9306 99° East 569 655 41,000  Level Indianapolis Center
12:14PM 39.1547 -87.7264 98° East 569 655 41,000  Level Indianapolis Center
12:15PM 39.1278 -87.4800 98° East 570 656 41,000  Level Indianapolis Center
12:16PM 39.1039 -87.2764 99° East 570 656 41,000  Level Indianapolis Center
12:17PM 39.0814 -87.0706 98° East 570 656 41,000  Level Indianapolis Center
12:18PM 39.0572 -86.8647 99° East 571 657 41,000  Level Indianapolis Center
12:19PM 39.0333 -86.6606 99° East 572 658 41,000  Level Indianapolis Center
12:20PM 39.0114 -86.4739 99° East 572 658 41,000  Level Indianapolis Center
12:21PM 38.9831 -86.2303 98° East 575 662 41,000  Level Indianapolis Center
12:22PM 38.9567 -86.0258 99° East 579 666 41,000  Level Indianapolis Center
12:23PM 38.9317 -85.8219 99° East 580 667 41,000  Level Indianapolis Center
12:24PM 38.9067 -85.6164 99° East 582 670 41,000  Level Indianapolis Center
12:25PM 38.8794 -85.4097 100° East 586 674 41,000  Level Indianapolis Center
12:26PM 38.8528 -85.2042 99° East 586 674 41,000  Level Indianapolis Center
12:27PM 38.8258 -84.9972 99° East 587 676 41,000  Level Indianapolis Center
12:28PM 38.7914 -84.7517 100° East 587 676 41,000  Level Indianapolis Center
12:29PM 38.7636 -84.5464 100° East 587 676 41,000  Level Indianapolis Center
12:30PM 38.7347 -84.3272 100° East 591 680 41,000  Level Indianapolis Center
12:31PM 38.7053 -84.1203 100° East 592 681 41,000  Level Indianapolis Center
12:32PM 38.6756 -83.9125 100° East 594 684 41,000  Level Indianapolis Center
12:33PM 38.6436 -83.6861 100° East 594 684 41,000  Level Indianapolis Center
12:34PM 38.6128 -83.4792 101° East 594 684 41,000  Level Indianapolis Center
12:35PM 38.5819 -83.2717 101° East 594 684 41,000  Level Indianapolis Center
12:36PM 38.5514 -83.0614 100° East 594 684 41,000  Level Indianapolis Center
12:37PM 38.5189 -82.8528 101° East 595 685 41,000  Level Indianapolis Center
12:38PM 38.4878 -82.6436 101° East 596 686 41,000  Level Indianapolis Center
12:39PM 38.4514 -82.4086 101° East 597 687 41,000 -60 Level Indianapolis Center
12:40PM 38.4181 -82.2003 101° East 598 688 40,900  Descending Indianapolis Center
12:41PM 38.3856 -81.9914 101° East 600 690 41,000 -420 Climbing Indianapolis Center
12:42PM 38.3517 -81.7858 102° East 600 690 40,100 -1,800 Descending Indianapolis Center
12:44PM 38.3200 -81.5847 101° East 592 681 37,400 -2,820 Descending Indianapolis Center
12:45PM 38.2808 -81.3383 101° East 593 682 34,300 -2,760 Descending Indianapolis Center
12:46PM 38.2483 -81.1394 102° East 586 674 31,800 -2,400 Descending Indianapolis Center
12:47PM 38.2169 -80.9408 101° East 581 669 29,400 -1,380 Descending Indianapolis Center
12:48PM 38.1864 -80.7556 102° East 548 631 29,000 -240 Descending Indianapolis Center
12:48PM 38.1617 -80.6228 103° East 549 632 29,000  Level Washington Center
12:49PM 38.1331 -80.4519 102° East 549 632 29,000 -540 Level Washington Center
12:50PM 38.1033 -80.2572 101° East 554 638 28,000 -1,080 Descending Washington Center
12:51PM 38.0692 -80.0625 103° East 554 638 26,900 -1,320 Descending Washington Center
12:52PM 38.0364 -79.8733 102° East 554 638 25,400 -1,740 Descending Washington Center
12:53PM 38.0072 -79.6953 102° East 533 613 23,500 -2,100 Descending Washington Center
12:54PM 37.9717 -79.5061 103° East 510 587 21,200 -1,260 Descending Washington Center
12:55PM 37.9439 -79.3361 102° East 504 580 21,000 -1,080 Descending Washington Center
12:56PM 37.9136 -79.1636 102° East 494 568 19,100 -1,980 Descending Washington Center
12:57PM 37.8744 -79.0064 107° East 489 563 17,200 -2,040 Descending Washington Center
12:58PM 37.8325 -78.8600 110° East 461 531 15,100 -2,040 Descending Washington Center
12:59PM 37.7925 -78.7242 110° East 434 499 13,100 -1,920 Descending Washington Center
01:00PM 37.7597 -78.6125 110° East 396 456 11,300 -1,560 Descending Washington Center
01:01PM 37.7269 -78.5036 111° Southeast 361 415 10,000 -1,080 Descending Washington Center
01:02PM 37.7003 -78.4028 108° East 321 369 9,200 -540 Descending Washington Center
01:03PM 37.6731 -78.3125 111° Southeast 297 342 9,000 -120 Descending Washington Center
01:04PM 37.6442 -78.2092 109° East 284 327 9,000  Level Washington Center
01:05PM 37.6128 -78.1111 112° Southeast 284 327 9,000  Level Washington Center
01:06PM 37.5856 -78.0158 110° East 289 333 9,000  Level Washington Center
01:07PM 37.5583 -77.9233 110° East 289 333 9,000 -660 Level Washington Center
01:08PM 37.5181 -77.8436 122° Southeast 279 321 7,700  Descending Washington Center
01:09PM 37.4819 -77.7639 120° Southeast 267 307 9,000 -1,380 Climbing Washington Center
01:10PM 37.4436 -77.6922 124° Southeast 256 295 5,000 -2,580 Descending Washington Center
01:11PM 37.4200 -77.6131 111° Southeast 244 281 4,000 -600 Descending Washington Center
01:14PM 37.3667 -77.4500 112° Southeast 199 229 3,000 -360 Descending Potomac TRACON
01:15PM 37.3833 -77.3833 73° East 170 196 2,900 -360 Descending Potomac TRACON
01:16PM 37.4167 -77.3500 38° Northeast 158 182 2,300 -900 Descending Potomac TRACON
01:17PM 37.4500 -77.3500 360° North 129 148 1,200 -900 Descending Potomac TRACON
01:18PM 37.4833 -77.3333 22° Northeast 115 132 500 -720 Descending Potomac TRACON
01:20PM 37.5000 -77.3167 47° Northeast  Level FlightAware Approximate